sensor_id;sensor_type;location;lat;lon;timestamp;temperature;humidity
33717;DHT22;20046;50.746;7.072;2023-01-30T00:01:27;3.90;99.90
33717;DHT22;20046;50.746;7.072;2023-01-30T00:03:53;3.90;99.90
33717;DHT22;20046;50.746;7.072;2023-01-30T00:06:19;4.00;99.90
33717;DHT22;20046;50.746;7.072;2023-01-30T00:08:46;4.00;99.90
33717;DHT22;20046;50.746;7.072;2023-01-30T00:11:13;4.10;99.90
33717;DHT22;20046;50.746;7.072;2023-01-30T00:13:39;4.10;99.90
33717;DHT22;20046;50.746;7.072;2023-01-30T00:16:05;4.10;99.90
33717;DHT22;20046;50.746;7.072;2023-01-30T00:18:31;4.20;99.90
33717;DHT22;20046;50.746;7.072;2023-01-30T00:20:58;4.20;99.90
33717;DHT22;20046;50.746;7.072;2023-01-30T00:23:25;4.20;99.90
33717;DHT22;20046;50.746;7.072;2023-01-30T00:25:51;4.20;99.90
33717;DHT22;20046;50.746;7.072;2023-01-30T00:28:17;4.30;99.90
33717;DHT22;20046;50.746;7.072;2023-01-30T00:30:42;4.30;99.90
33717;DHT22;20046;50.746;7.072;2023-01-30T00:33:09;4.40;99.90
33717;DHT22;20046;50.746;7.072;2023-01-30T00:35:35;4.40;99.90
33717;DHT22;20046;50.746;7.072;2023-01-30T00:38:00;4.50;99.90
33717;DHT22;20046;50.746;7.072;2023-01-30T00:40:27;4.50;99.90
33717;DHT22;20046;50.746;7.072;2023-01-30T00:42:53;4.50;99.90
33717;DHT22;20046;50.746;7.072;2023-01-30T00:45:39;4.50;99.90
33717;DHT22;20046;50.746;7.072;2023-01-30T00:48:24;4.60;99.90
33717;DHT22;20046;50.746;7.072;2023-01-30T00:50:49;4.60;99.90
33717;DHT22;20046;50.746;7.072;2023-01-30T00:53:15;4.60;99.90
33717;DHT22;20046;50.746;7.072;2023-01-30T00:55:41;4.60;99.90
33717;DHT22;20046;50.746;7.072;2023-01-30T00:58:29;4.60;99.90
33717;DHT22;20046;50.746;7.072;2023-01-30T01:00:55;4.60;99.90
33717;DHT22;20046;50.746;7.072;2023-01-30T01:03:21;4.50;99.90
33717;DHT22;20046;50.746;7.072;2023-01-30T01:05:46;4.50;99.90
33717;DHT22;20046;50.746;7.072;2023-01-30T01:08:12;4.50;99.90
33717;DHT22;20046;50.746;7.072;2023-01-30T01:10:38;4.50;99.90
33717;DHT22;20046;50.746;7.072;2023-01-30T01:13:04;4.60;99.90
33717;DHT22;20046;50.746;7.072;2023-01-30T01:15:31;4.60;99.90
33717;DHT22;20046;50.746;7.072;2023-01-30T01:17:57;4.60;99.90
33717;DHT22;20046;50.746;7.072;2023-01-30T01:20:22;4.60;99.90
33717;DHT22;20046;50.746;7.072;2023-01-30T01:22:52;4.60;99.90
33717;DHT22;20046;50.746;7.072;2023-01-30T01:25:18;4.60;99.90
33717;DHT22;20046;50.746;7.072;2023-01-30T01:27:44;4.60;99.90
33717;DHT22;20046;50.746;7.072;2023-01-30T01:30:10;4.60;99.90
33717;DHT22;20046;50.746;7.072;2023-01-30T01:32:36;4.60;99.90
33717;DHT22;20046;50.746;7.072;2023-01-30T01:35:02;4.60;99.90
33717;DHT22;20046;50.746;7.072;2023-01-30T01:37:28;4.60;99.90
33717;DHT22;20046;50.746;7.072;2023-01-30T01:39:53;4.60;99.90
33717;DHT22;20046;50.746;7.072;2023-01-30T01:42:38;4.60;99.90
33717;DHT22;20046;50.746;7.072;2023-01-30T01:50:37;4.60;99.90
33717;DHT22;20046;50.746;7.072;2023-01-30T01:53:04;4.60;99.90
33717;DHT22;20046;50.746;7.072;2023-01-30T01:55:30;4.60;99.90
33717;DHT22;20046;50.746;7.072;2023-01-30T01:58:05;4.60;99.90
33717;DHT22;20046;50.746;7.072;2023-01-30T02:00:32;4.60;99.90
33717;DHT22;20046;50.746;7.072;2023-01-30T02:03:00;4.60;99.90
33717;DHT22;20046;50.746;7.072;2023-01-30T02:05:31;4.60;99.90
33717;DHT22;20046;50.746;7.072;2023-01-30T02:11:04;4.60;99.90
33717;DHT22;20046;50.746;7.072;2023-01-30T02:13:31;4.60;99.90
33717;DHT22;20046;50.746;7.072;2023-01-30T02:15:58;4.70;99.90
33717;DHT22;20046;50.746;7.072;2023-01-30T02:18:24;4.70;99.90
33717;DHT22;20046;50.746;7.072;2023-01-30T02:32:31;4.70;99.90
33717;DHT22;20046;50.746;7.072;2023-01-30T02:35:09;4.70;99.90
33717;DHT22;20046;50.746;7.072;2023-01-30T02:37:48;4.70;99.90
33717;DHT22;20046;50.746;7.072;2023-01-30T02:46:06;4.70;99.90
33717;DHT22;20046;50.746;7.072;2023-01-30T02:48:39;4.70;99.90
33717;DHT22;20046;50.746;7.072;2023-01-30T02:51:33;4.80;99.90
33717;DHT22;20046;50.746;7.072;2023-01-30T02:53:59;4.80;99.90
33717;DHT22;20046;50.746;7.072;2023-01-30T02:56:25;4.80;99.90
33717;DHT22;20046;50.746;7.072;2023-01-30T02:58:59;4.80;99.90
33717;DHT22;20046;50.746;7.072;2023-01-30T03:02:01;4.90;99.90
33717;DHT22;20046;50.746;7.072;2023-01-30T03:15:58;5.10;99.90
33717;DHT22;20046;50.746;7.072;2023-01-30T03:17:51;5.10;99.90
33717;DHT22;20046;50.746;7.072;2023-01-30T03:20:19;5.10;99.90
33717;DHT22;20046;50.746;7.072;2023-01-30T03:22:45;5.10;99.90
33717;DHT22;20046;50.746;7.072;2023-01-30T03:25:14;5.10;99.90
33717;DHT22;20046;50.746;7.072;2023-01-30T03:27:41;5.10;99.90
33717;DHT22;20046;50.746;7.072;2023-01-30T03:30:08;5.10;99.90
33717;DHT22;20046;50.746;7.072;2023-01-30T03:32:34;5.10;99.90
33717;DHT22;20046;50.746;7.072;2023-01-30T03:34:59;5.10;99.90
33717;DHT22;20046;50.746;7.072;2023-01-30T03:37:26;5.10;99.90
33717;DHT22;20046;50.746;7.072;2023-01-30T03:39:51;5.10;99.90
33717;DHT22;20046;50.746;7.072;2023-01-30T03:42:17;5.10;99.90
33717;DHT22;20046;50.746;7.072;2023-01-30T03:44:43;5.10;99.90
33717;DHT22;20046;50.746;7.072;2023-01-30T03:47:08;5.10;99.90
33717;DHT22;20046;50.746;7.072;2023-01-30T03:49:34;5.10;99.90
33717;DHT22;20046;50.746;7.072;2023-01-30T03:51:59;5.20;99.90
33717;DHT22;20046;50.746;7.072;2023-01-30T03:54:25;5.30;99.90
33717;DHT22;20046;50.746;7.072;2023-01-30T03:56:50;5.40;99.90
33717;DHT22;20046;50.746;7.072;2023-01-30T03:59:16;5.50;99.90
33717;DHT22;20046;50.746;7.072;2023-01-30T04:01:41;5.60;99.90
33717;DHT22;20046;50.746;7.072;2023-01-30T04:04:07;5.70;99.90
33717;DHT22;20046;50.746;7.072;2023-01-30T04:06:33;5.70;99.90
33717;DHT22;20046;50.746;7.072;2023-01-30T04:08:58;5.70;99.90
33717;DHT22;20046;50.746;7.072;2023-01-30T04:11:24;5.80;99.90
33717;DHT22;20046;50.746;7.072;2023-01-30T04:13:49;5.80;99.90
33717;DHT22;20046;50.746;7.072;2023-01-30T04:16:23;5.80;99.90
33717;DHT22;20046;50.746;7.072;2023-01-30T04:18:49;5.90;99.90
33717;DHT22;20046;50.746;7.072;2023-01-30T04:21:15;5.90;99.90
33717;DHT22;20046;50.746;7.072;2023-01-30T04:23:41;6.00;99.90
33717;DHT22;20046;50.746;7.072;2023-01-30T04:26:08;6.10;99.90
33717;DHT22;20046;50.746;7.072;2023-01-30T04:28:34;6.10;99.90
33717;DHT22;20046;50.746;7.072;2023-01-30T04:31:00;6.10;99.90
33717;DHT22;20046;50.746;7.072;2023-01-30T04:33:25;6.10;99.90
33717;DHT22;20046;50.746;7.072;2023-01-30T04:35:52;6.10;99.90
33717;DHT22;20046;50.746;7.072;2023-01-30T04:38:18;6.10;99.90
33717;DHT22;20046;50.746;7.072;2023-01-30T04:40:48;6.10;99.90
33717;DHT22;20046;50.746;7.072;2023-01-30T04:43:14;6.20;99.90
33717;DHT22;20046;50.746;7.072;2023-01-30T04:45:44;6.10;99.90
33717;DHT22;20046;50.746;7.072;2023-01-30T04:48:09;6.10;99.90
33717;DHT22;20046;50.746;7.072;2023-01-30T04:50:35;6.10;99.90
33717;DHT22;20046;50.746;7.072;2023-01-30T04:53:01;6.10;99.90
33717;DHT22;20046;50.746;7.072;2023-01-30T04:55:26;6.10;99.90
33717;DHT22;20046;50.746;7.072;2023-01-30T04:57:52;6.10;99.90
33717;DHT22;20046;50.746;7.072;2023-01-30T05:00:18;6.00;99.90
33717;DHT22;20046;50.746;7.072;2023-01-30T05:02:43;6.00;99.90
33717;DHT22;20046;50.746;7.072;2023-01-30T05:05:09;6.00;99.90
33717;DHT22;20046;50.746;7.072;2023-01-30T05:07:34;5.90;99.90
33717;DHT22;20046;50.746;7.072;2023-01-30T05:10:00;5.90;99.90
33717;DHT22;20046;50.746;7.072;2023-01-30T05:12:27;5.90;99.90
33717;DHT22;20046;50.746;7.072;2023-01-30T05:14:53;5.90;99.90
33717;DHT22;20046;50.746;7.072;2023-01-30T05:17:19;5.90;99.90
33717;DHT22;20046;50.746;7.072;2023-01-30T05:19:44;5.90;99.90
33717;DHT22;20046;50.746;7.072;2023-01-30T05:22:10;5.90;99.90
33717;DHT22;20046;50.746;7.072;2023-01-30T05:24:36;5.90;99.90
33717;DHT22;20046;50.746;7.072;2023-01-30T05:27:02;6.00;99.90
33717;DHT22;20046;50.746;7.072;2023-01-30T05:29:28;6.00;99.90
33717;DHT22;20046;50.746;7.072;2023-01-30T05:31:53;5.90;99.90
33717;DHT22;20046;50.746;7.072;2023-01-30T05:34:19;5.90;99.90
33717;DHT22;20046;50.746;7.072;2023-01-30T05:36:44;5.90;99.90
33717;DHT22;20046;50.746;7.072;2023-01-30T05:39:10;5.90;99.90
33717;DHT22;20046;50.746;7.072;2023-01-30T05:41:35;5.90;99.90
33717;DHT22;20046;50.746;7.072;2023-01-30T05:44:01;5.90;99.90
33717;DHT22;20046;50.746;7.072;2023-01-30T05:46:27;5.90;99.90
33717;DHT22;20046;50.746;7.072;2023-01-30T05:48:52;5.90;99.90
33717;DHT22;20046;50.746;7.072;2023-01-30T05:51:23;5.90;99.90
33717;DHT22;20046;50.746;7.072;2023-01-30T05:53:50;5.80;99.90
33717;DHT22;20046;50.746;7.072;2023-01-30T05:56:16;5.80;99.90
33717;DHT22;20046;50.746;7.072;2023-01-30T05:58:42;5.80;99.90
33717;DHT22;20046;50.746;7.072;2023-01-30T06:01:10;5.80;99.90
33717;DHT22;20046;50.746;7.072;2023-01-30T06:03:37;5.70;99.90
33717;DHT22;20046;50.746;7.072;2023-01-30T06:06:04;5.70;99.90
33717;DHT22;20046;50.746;7.072;2023-01-30T06:08:31;5.70;99.90
33717;DHT22;20046;50.746;7.072;2023-01-30T06:11:04;5.70;99.90
33717;DHT22;20046;50.746;7.072;2023-01-30T06:13:31;5.70;99.90
33717;DHT22;20046;50.746;7.072;2023-01-30T06:15:57;5.70;99.90
33717;DHT22;20046;50.746;7.072;2023-01-30T06:18:22;5.70;99.90
33717;DHT22;20046;50.746;7.072;2023-01-30T06:20:49;5.70;99.90
33717;DHT22;20046;50.746;7.072;2023-01-30T06:23:15;5.70;99.90
33717;DHT22;20046;50.746;7.072;2023-01-30T06:25:48;5.70;99.90
33717;DHT22;20046;50.746;7.072;2023-01-30T06:28:15;5.70;99.90
33717;DHT22;20046;50.746;7.072;2023-01-30T06:30:41;5.70;99.90
33717;DHT22;20046;50.746;7.072;2023-01-30T06:33:07;5.70;99.90
33717;DHT22;20046;50.746;7.072;2023-01-30T06:35:33;5.80;99.90
33717;DHT22;20046;50.746;7.072;2023-01-30T06:38:01;5.70;99.90
33717;DHT22;20046;50.746;7.072;2023-01-30T06:40:26;5.80;99.90
33717;DHT22;20046;50.746;7.072;2023-01-30T06:42:52;5.80;99.90
33717;DHT22;20046;50.746;7.072;2023-01-30T06:45:18;5.80;99.90
33717;DHT22;20046;50.746;7.072;2023-01-30T06:47:52;5.80;99.90
33717;DHT22;20046;50.746;7.072;2023-01-30T06:50:20;5.80;99.90
33717;DHT22;20046;50.746;7.072;2023-01-30T06:52:48;5.80;99.90
33717;DHT22;20046;50.746;7.072;2023-01-30T06:55:16;5.80;99.90
33717;DHT22;20046;50.746;7.072;2023-01-30T06:57:43;5.90;99.90
33717;DHT22;20046;50.746;7.072;2023-01-30T07:00:15;5.90;99.90
33717;DHT22;20046;50.746;7.072;2023-01-30T07:02:40;6.00;99.90
33717;DHT22;20046;50.746;7.072;2023-01-30T07:05:07;6.00;99.90
33717;DHT22;20046;50.746;7.072;2023-01-30T07:07:34;6.00;99.90
33717;DHT22;20046;50.746;7.072;2023-01-30T07:10:00;6.00;99.90
33717;DHT22;20046;50.746;7.072;2023-01-30T07:12:26;6.00;99.90
33717;DHT22;20046;50.746;7.072;2023-01-30T07:14:52;6.10;99.90
33717;DHT22;20046;50.746;7.072;2023-01-30T07:17:19;6.10;99.90
33717;DHT22;20046;50.746;7.072;2023-01-30T07:19:45;6.10;99.90
33717;DHT22;20046;50.746;7.072;2023-01-30T07:22:11;6.10;99.90
33717;DHT22;20046;50.746;7.072;2023-01-30T07:24:38;6.20;99.90
33717;DHT22;20046;50.746;7.072;2023-01-30T07:27:09;6.20;99.90
33717;DHT22;20046;50.746;7.072;2023-01-30T07:29:36;6.20;99.90
33717;DHT22;20046;50.746;7.072;2023-01-30T07:32:02;6.20;99.90
33717;DHT22;20046;50.746;7.072;2023-01-30T07:34:28;6.20;99.90
33717;DHT22;20046;50.746;7.072;2023-01-30T07:36:54;6.20;99.90
33717;DHT22;20046;50.746;7.072;2023-01-30T07:39:19;6.20;99.90
33717;DHT22;20046;50.746;7.072;2023-01-30T07:41:45;6.20;99.90
33717;DHT22;20046;50.746;7.072;2023-01-30T07:44:12;6.30;99.90
33717;DHT22;20046;50.746;7.072;2023-01-30T07:46:37;6.30;99.90
33717;DHT22;20046;50.746;7.072;2023-01-30T07:49:04;6.30;99.90
33717;DHT22;20046;50.746;7.072;2023-01-30T07:51:30;6.20;99.90
33717;DHT22;20046;50.746;7.072;2023-01-30T07:53:56;6.20;99.90
33717;DHT22;20046;50.746;7.072;2023-01-30T07:56:21;6.30;99.90
33717;DHT22;20046;50.746;7.072;2023-01-30T07:58:48;6.30;99.90
33717;DHT22;20046;50.746;7.072;2023-01-30T08:01:14;6.30;99.90
33717;DHT22;20046;50.746;7.072;2023-01-30T08:03:39;6.30;99.90
33717;DHT22;20046;50.746;7.072;2023-01-30T08:06:06;6.30;99.90
33717;DHT22;20046;50.746;7.072;2023-01-30T08:08:31;6.30;99.90
33717;DHT22;20046;50.746;7.072;2023-01-30T08:10:57;6.30;99.90
33717;DHT22;20046;50.746;7.072;2023-01-30T08:13:23;6.30;99.90
33717;DHT22;20046;50.746;7.072;2023-01-30T08:15:48;6.30;99.90
33717;DHT22;20046;50.746;7.072;2023-01-30T08:18:14;6.30;99.90
33717;DHT22;20046;50.746;7.072;2023-01-30T08:20:40;6.30;99.90
33717;DHT22;20046;50.746;7.072;2023-01-30T08:23:07;6.30;99.90
33717;DHT22;20046;50.746;7.072;2023-01-30T08:25:34;6.30;99.90
33717;DHT22;20046;50.746;7.072;2023-01-30T08:28:00;6.30;99.90
33717;DHT22;20046;50.746;7.072;2023-01-30T08:30:27;6.40;99.90
33717;DHT22;20046;50.746;7.072;2023-01-30T08:32:53;6.40;99.90
33717;DHT22;20046;50.746;7.072;2023-01-30T08:35:19;6.50;99.90
33717;DHT22;20046;50.746;7.072;2023-01-30T08:37:45;6.50;99.90
33717;DHT22;20046;50.746;7.072;2023-01-30T08:40:10;6.50;99.90
33717;DHT22;20046;50.746;7.072;2023-01-30T08:42:36;6.50;99.90
33717;DHT22;20046;50.746;7.072;2023-01-30T08:45:02;6.60;99.90
33717;DHT22;20046;50.746;7.072;2023-01-30T08:47:28;6.80;99.90
33717;DHT22;20046;50.746;7.072;2023-01-30T08:49:53;6.90;99.90
33717;DHT22;20046;50.746;7.072;2023-01-30T08:52:19;7.00;99.90
33717;DHT22;20046;50.746;7.072;2023-01-30T08:54:46;7.00;99.90
33717;DHT22;20046;50.746;7.072;2023-01-30T08:57:13;7.00;99.90
33717;DHT22;20046;50.746;7.072;2023-01-30T08:59:39;7.10;99.90
33717;DHT22;20046;50.746;7.072;2023-01-30T09:02:07;7.20;99.90
33717;DHT22;20046;50.746;7.072;2023-01-30T09:04:34;7.10;99.90
33717;DHT22;20046;50.746;7.072;2023-01-30T09:06:59;7.10;99.90
33717;DHT22;20046;50.746;7.072;2023-01-30T09:09:25;7.30;99.90
33717;DHT22;20046;50.746;7.072;2023-01-30T09:11:50;8.20;99.90
33717;DHT22;20046;50.746;7.072;2023-01-30T09:14:16;9.00;99.90
33717;DHT22;20046;50.746;7.072;2023-01-30T09:16:45;9.50;99.90
33717;DHT22;20046;50.746;7.072;2023-01-30T09:19:11;10.10;99.90
33717;DHT22;20046;50.746;7.072;2023-01-30T09:21:36;10.60;99.90
33717;DHT22;20046;50.746;7.072;2023-01-30T09:24:04;11.00;99.90
33717;DHT22;20046;50.746;7.072;2023-01-30T09:26:30;11.60;99.90
33717;DHT22;20046;50.746;7.072;2023-01-30T09:28:55;11.90;99.90
33717;DHT22;20046;50.746;7.072;2023-01-30T09:31:21;11.90;99.90
33717;DHT22;20046;50.746;7.072;2023-01-30T09:33:46;12.00;99.90
33717;DHT22;20046;50.746;7.072;2023-01-30T09:36:12;12.40;99.90
33717;DHT22;20046;50.746;7.072;2023-01-30T09:38:38;12.60;99.90
33717;DHT22;20046;50.746;7.072;2023-01-30T09:46:47;13.30;99.90
33717;DHT22;20046;50.746;7.072;2023-01-30T09:54:44;13.50;99.90
33717;DHT22;20046;50.746;7.072;2023-01-30T09:57:15;13.20;99.90
33717;DHT22;20046;50.746;7.072;2023-01-30T09:59:50;13.30;99.90
33717;DHT22;20046;50.746;7.072;2023-01-30T10:05:00;13.80;99.90
33717;DHT22;20046;50.746;7.072;2023-01-30T10:10:02;14.30;99.90
33717;DHT22;20046;50.746;7.072;2023-01-30T10:15:27;14.50;99.90
33717;DHT22;20046;50.746;7.072;2023-01-30T10:21:28;13.50;99.90
33717;DHT22;20046;50.746;7.072;2023-01-30T10:26:29;12.20;99.90
33717;DHT22;20046;50.746;7.072;2023-01-30T10:31:31;10.90;99.90
33717;DHT22;20046;50.746;7.072;2023-01-30T10:34:35;10.60;99.90
33717;DHT22;20046;50.746;7.072;2023-01-30T10:39:33;10.40;99.90
33717;DHT22;20046;50.746;7.072;2023-01-30T10:42:12;10.10;99.90
33717;DHT22;20046;50.746;7.072;2023-01-30T10:44:39;10.60;99.90
33717;DHT22;20046;50.746;7.072;2023-01-30T10:47:13;10.70;99.90
33717;DHT22;20046;50.746;7.072;2023-01-30T10:49:50;10.60;99.90
33717;DHT22;20046;50.746;7.072;2023-01-30T10:52:40;10.30;99.90
33717;DHT22;20046;50.746;7.072;2023-01-30T10:55:33;10.30;99.90
33717;DHT22;20046;50.746;7.072;2023-01-30T10:58:12;11.40;99.90
33717;DHT22;20046;50.746;7.072;2023-01-30T11:00:42;12.40;99.90
33717;DHT22;20046;50.746;7.072;2023-01-30T11:03:37;12.70;99.90
33717;DHT22;20046;50.746;7.072;2023-01-30T11:06:10;12.40;99.90
33717;DHT22;20046;50.746;7.072;2023-01-30T11:08:36;12.60;99.90
33717;DHT22;20046;50.746;7.072;2023-01-30T11:11:25;12.70;99.90
33717;DHT22;20046;50.746;7.072;2023-01-30T11:14:03;12.00;99.90
33717;DHT22;20046;50.746;7.072;2023-01-30T11:16:30;11.30;99.90
33717;DHT22;20046;50.746;7.072;2023-01-30T11:18:56;10.80;99.90
33717;DHT22;20046;50.746;7.072;2023-01-30T11:21:27;10.60;99.90
33717;DHT22;20046;50.746;7.072;2023-01-30T11:23:54;10.30;99.90
33717;DHT22;20046;50.746;7.072;2023-01-30T11:26:28;10.10;99.90
33717;DHT22;20046;50.746;7.072;2023-01-30T11:28:55;10.00;99.90
33717;DHT22;20046;50.746;7.072;2023-01-30T11:31:28;9.80;99.90
33717;DHT22;20046;50.746;7.072;2023-01-30T11:34:03;10.00;99.90
33717;DHT22;20046;50.746;7.072;2023-01-30T11:36:34;10.40;99.90
33717;DHT22;20046;50.746;7.072;2023-01-30T11:39:00;10.20;99.90
33717;DHT22;20046;50.746;7.072;2023-01-30T11:41:27;10.00;99.90
33717;DHT22;20046;50.746;7.072;2023-01-30T11:44:03;9.80;99.90
33717;DHT22;20046;50.746;7.072;2023-01-30T11:46:33;9.60;99.90
33717;DHT22;20046;50.746;7.072;2023-01-30T11:49:20;9.50;99.90
33717;DHT22;20046;50.746;7.072;2023-01-30T11:51:47;9.40;99.90
33717;DHT22;20046;50.746;7.072;2023-01-30T11:54:43;9.30;99.90
33717;DHT22;20046;50.746;7.072;2023-01-30T11:57:14;9.30;99.90
33717;DHT22;20046;50.746;7.072;2023-01-30T11:59:44;9.30;99.90
33717;DHT22;20046;50.746;7.072;2023-01-30T12:04:55;9.10;99.90
33717;DHT22;20046;50.746;7.072;2023-01-30T12:07:23;9.00;99.90
33717;DHT22;20046;50.746;7.072;2023-01-30T12:09:50;9.00;99.90
33717;DHT22;20046;50.746;7.072;2023-01-30T12:15:04;9.10;99.90
33717;DHT22;20046;50.746;7.072;2023-01-30T12:17:41;9.20;99.90
33717;DHT22;20046;50.746;7.072;2023-01-30T12:20:22;9.40;99.90
33717;DHT22;20046;50.746;7.072;2023-01-30T12:23:21;9.90;99.90
33717;DHT22;20046;50.746;7.072;2023-01-30T12:28:38;9.90;99.90
33717;DHT22;20046;50.746;7.072;2023-01-30T12:31:16;9.90;99.90
33717;DHT22;20046;50.746;7.072;2023-01-30T12:33:43;9.80;99.90
33717;DHT22;20046;50.746;7.072;2023-01-30T12:38:59;9.80;99.90
33717;DHT22;20046;50.746;7.072;2023-01-30T12:41:47;9.80;99.90
33717;DHT22;20046;50.746;7.072;2023-01-30T12:55:42;8.80;99.90
33717;DHT22;20046;50.746;7.072;2023-01-30T13:03:52;8.50;99.90
33717;DHT22;20046;50.746;7.072;2023-01-30T13:06:38;8.40;99.90
33717;DHT22;20046;50.746;7.072;2023-01-30T13:09:13;8.40;99.90
33717;DHT22;20046;50.746;7.072;2023-01-30T13:22:32;8.50;99.90
33717;DHT22;20046;50.746;7.072;2023-01-30T13:25:34;8.50;99.90
33717;DHT22;20046;50.746;7.072;2023-01-30T13:28:11;8.60;99.90
33717;DHT22;20046;50.746;7.072;2023-01-30T13:30:38;8.80;99.90
33717;DHT22;20046;50.746;7.072;2023-01-30T13:33:13;9.00;99.90
33717;DHT22;20046;50.746;7.072;2023-01-30T13:35:47;9.10;99.90
33717;DHT22;20046;50.746;7.072;2023-01-30T13:38:23;9.10;99.90
33717;DHT22;20046;50.746;7.072;2023-01-30T13:40:52;9.10;99.90
33717;DHT22;20046;50.746;7.072;2023-01-30T13:43:29;9.00;99.90
33717;DHT22;20046;50.746;7.072;2023-01-30T13:46:00;9.00;99.90
33717;DHT22;20046;50.746;7.072;2023-01-30T13:51:29;8.90;99.90
33717;DHT22;20046;50.746;7.072;2023-01-30T13:57:14;8.80;99.90
33717;DHT22;20046;50.746;7.072;2023-01-30T14:09:16;8.60;99.90
33717;DHT22;20046;50.746;7.072;2023-01-30T14:16:40;8.40;99.90
33717;DHT22;20046;50.746;7.072;2023-01-30T14:19:20;8.40;99.90
33717;DHT22;20046;50.746;7.072;2023-01-30T14:21:54;8.40;99.90
33717;DHT22;20046;50.746;7.072;2023-01-30T14:24:22;8.50;99.90
33717;DHT22;20046;50.746;7.072;2023-01-30T14:35:22;8.50;99.90
33717;DHT22;20046;50.746;7.072;2023-01-30T14:45:59;8.60;99.90
33717;DHT22;20046;50.746;7.072;2023-01-30T14:57:00;8.70;99.90
33717;DHT22;20046;50.746;7.072;2023-01-30T15:32:21;8.90;99.90
33717;DHT22;20046;50.746;7.072;2023-01-30T15:34:55;8.90;99.90
33717;DHT22;20046;50.746;7.072;2023-01-30T15:37:48;8.80;99.90
33717;DHT22;20046;50.746;7.072;2023-01-30T15:48:40;8.40;99.90
33717;DHT22;20046;50.746;7.072;2023-01-30T15:51:14;8.20;99.90
33717;DHT22;20046;50.746;7.072;2023-01-30T15:53:45;8.10;99.90
33717;DHT22;20046;50.746;7.072;2023-01-30T15:56:17;8.00;99.90
33717;DHT22;20046;50.746;7.072;2023-01-30T15:58:44;7.90;99.90
33717;DHT22;20046;50.746;7.072;2023-01-30T16:01:11;7.90;99.90
33717;DHT22;20046;50.746;7.072;2023-01-30T16:03:41;7.80;99.90
33717;DHT22;20046;50.746;7.072;2023-01-30T16:09:00;7.70;99.90
33717;DHT22;20046;50.746;7.072;2023-01-30T16:11:52;7.60;99.90
33717;DHT22;20046;50.746;7.072;2023-01-30T16:14:19;7.60;99.90
33717;DHT22;20046;50.746;7.072;2023-01-30T16:16:55;7.60;99.90
33717;DHT22;20046;50.746;7.072;2023-01-30T16:19:35;7.60;99.90
33717;DHT22;20046;50.746;7.072;2023-01-30T16:22:04;7.50;99.90
33717;DHT22;20046;50.746;7.072;2023-01-30T16:24:32;7.50;99.90
33717;DHT22;20046;50.746;7.072;2023-01-30T16:27:04;7.50;99.90
33717;DHT22;20046;50.746;7.072;2023-01-30T16:29:33;7.40;99.90
33717;DHT22;20046;50.746;7.072;2023-01-30T16:32:01;7.40;99.90
33717;DHT22;20046;50.746;7.072;2023-01-30T16:34:37;7.30;99.90
33717;DHT22;20046;50.746;7.072;2023-01-30T16:39:41;7.20;99.90
33717;DHT22;20046;50.746;7.072;2023-01-30T16:42:39;7.10;99.90
33717;DHT22;20046;50.746;7.072;2023-01-30T16:50:45;6.80;99.90
33717;DHT22;20046;50.746;7.072;2023-01-30T16:53:17;6.70;99.90
33717;DHT22;20046;50.746;7.072;2023-01-30T16:55:55;6.60;99.90
33717;DHT22;20046;50.746;7.072;2023-01-30T16:58:23;6.50;99.90
33717;DHT22;20046;50.746;7.072;2023-01-30T17:00:52;6.50;99.90
33717;DHT22;20046;50.746;7.072;2023-01-30T17:03:25;6.50;99.90
33717;DHT22;20046;50.746;7.072;2023-01-30T17:05:54;6.60;99.90
33717;DHT22;20046;50.746;7.072;2023-01-30T17:11:04;6.60;99.90
33717;DHT22;20046;50.746;7.072;2023-01-30T17:13:37;6.60;99.90
33717;DHT22;20046;50.746;7.072;2023-01-30T17:16:32;6.60;99.90
33717;DHT22;20046;50.746;7.072;2023-01-30T17:18:58;6.50;99.90
33717;DHT22;20046;50.746;7.072;2023-01-30T17:21:28;6.50;99.90
33717;DHT22;20046;50.746;7.072;2023-01-30T17:24:04;6.40;99.90
33717;DHT22;20046;50.746;7.072;2023-01-30T17:26:30;6.40;99.90
33717;DHT22;20046;50.746;7.072;2023-01-30T17:28:57;6.30;99.90
33717;DHT22;20046;50.746;7.072;2023-01-30T17:31:23;6.30;99.90
33717;DHT22;20046;50.746;7.072;2023-01-30T17:33:48;6.40;99.90
33717;DHT22;20046;50.746;7.072;2023-01-30T17:36:19;6.30;99.90
33717;DHT22;20046;50.746;7.072;2023-01-30T17:38:46;6.30;99.90
33717;DHT22;20046;50.746;7.072;2023-01-30T17:41:21;6.30;99.90
33717;DHT22;20046;50.746;7.072;2023-01-30T17:43:47;6.30;99.90
33717;DHT22;20046;50.746;7.072;2023-01-30T17:46:13;6.30;99.90
33717;DHT22;20046;50.746;7.072;2023-01-30T17:48:39;6.30;99.90
33717;DHT22;20046;50.746;7.072;2023-01-30T17:51:04;6.20;99.90
33717;DHT22;20046;50.746;7.072;2023-01-30T17:53:30;6.30;99.90
33717;DHT22;20046;50.746;7.072;2023-01-30T17:55:56;6.30;99.90
33717;DHT22;20046;50.746;7.072;2023-01-30T17:58:21;6.20;99.90
33717;DHT22;20046;50.746;7.072;2023-01-30T18:00:47;6.20;99.90
33717;DHT22;20046;50.746;7.072;2023-01-30T18:03:13;6.20;99.90
33717;DHT22;20046;50.746;7.072;2023-01-30T18:05:41;6.20;99.90
33717;DHT22;20046;50.746;7.072;2023-01-30T18:08:07;6.20;99.90
33717;DHT22;20046;50.746;7.072;2023-01-30T18:10:33;6.20;99.90
33717;DHT22;20046;50.746;7.072;2023-01-30T18:12:58;6.20;99.90
33717;DHT22;20046;50.746;7.072;2023-01-30T18:15:24;6.20;99.90
33717;DHT22;20046;50.746;7.072;2023-01-30T18:17:50;6.20;99.90
33717;DHT22;20046;50.746;7.072;2023-01-30T18:20:19;6.20;99.90
33717;DHT22;20046;50.746;7.072;2023-01-30T18:22:45;6.10;99.90
33717;DHT22;20046;50.746;7.072;2023-01-30T18:25:11;6.20;99.90
33717;DHT22;20046;50.746;7.072;2023-01-30T18:27:43;6.20;99.90
33717;DHT22;20046;50.746;7.072;2023-01-30T18:30:13;6.20;99.90
33717;DHT22;20046;50.746;7.072;2023-01-30T18:32:39;6.20;99.90
33717;DHT22;20046;50.746;7.072;2023-01-30T18:35:05;6.20;99.90
33717;DHT22;20046;50.746;7.072;2023-01-30T18:37:31;6.20;99.90
33717;DHT22;20046;50.746;7.072;2023-01-30T18:39:56;6.20;99.90
33717;DHT22;20046;50.746;7.072;2023-01-30T18:42:22;6.10;99.90
33717;DHT22;20046;50.746;7.072;2023-01-30T18:44:48;6.10;99.90
33717;DHT22;20046;50.746;7.072;2023-01-30T18:47:13;6.00;99.90
33717;DHT22;20046;50.746;7.072;2023-01-30T18:49:39;6.00;99.90
33717;DHT22;20046;50.746;7.072;2023-01-30T18:52:04;5.90;99.90
33717;DHT22;20046;50.746;7.072;2023-01-30T18:54:30;5.80;99.90
33717;DHT22;20046;50.746;7.072;2023-01-30T18:56:55;5.70;99.90
33717;DHT22;20046;50.746;7.072;2023-01-30T18:59:21;5.60;99.90
33717;DHT22;20046;50.746;7.072;2023-01-30T19:01:47;5.70;99.90
33717;DHT22;20046;50.746;7.072;2023-01-30T19:04:13;5.70;99.90
33717;DHT22;20046;50.746;7.072;2023-01-30T19:06:41;5.70;99.90
33717;DHT22;20046;50.746;7.072;2023-01-30T19:09:11;5.90;99.90
33717;DHT22;20046;50.746;7.072;2023-01-30T19:11:37;6.00;99.90
33717;DHT22;20046;50.746;7.072;2023-01-30T19:14:20;6.00;99.90
33717;DHT22;20046;50.746;7.072;2023-01-30T19:16:46;6.10;99.90
33717;DHT22;20046;50.746;7.072;2023-01-30T19:19:12;6.10;99.90
33717;DHT22;20046;50.746;7.072;2023-01-30T19:21:37;6.20;99.90
33717;DHT22;20046;50.746;7.072;2023-01-30T19:24:05;6.20;99.90